Time;durP1;ratioP1;P1;durP2;ratioP2;P2;SDS_P1;SDS_P2;PMS_P1;PMS_P2;Temp;Humidity;BMP_temperature;BMP_pressure;BME280_temperature;BME280_humidity;BME280_pressure;Samples;Min_cycle;Max_cycle;Signal;HPM_P1;HPM_P2
2022/11/29 07:43:57;;;;;;;5.72;3.75;;;;;;;;;;12919021;22;1506571;-82
2022/11/29 07:48:58;;;;;;;6.38;4.00;;;;;;;;;;13058064;22;20082;-82
2022/11/29 07:53:59;;;;;;;7.82;3.97;;;;;;;;;;13072994;22;19999;-81
2022/11/29 07:59:01;;;;;;;7.57;4.53;;;;;;;;;;13081429;22;20003;-82
2022/11/29 08:04:02;;;;;;;9.07;5.55;;;;;;;;;;13079102;22;20315;-82
2022/11/29 08:09:05;;;;;;;9.00;5.03;;;;;;;;;;13068146;22;19999;-80
2022/11/29 08:14:07;;;;;;;12.55;7.03;;;;;;;;;;13068024;22;20013;-81
2022/11/29 08:19:08;;;;;;;12.98;7.55;;;;;;;;;;13064697;22;20080;-81
2022/11/29 08:24:09;;;;;;;15.18;8.15;;;;;;;;;;13061612;22;20354;-81
2022/11/29 08:29:10;;;;;;;14.80;8.98;;;;;;;;;;13062704;22;20133;-80
2022/11/29 08:34:11;;;;;;;16.65;9.77;;;;;;;;;;13064837;22;20007;-79
2022/11/29 08:39:12;;;;;;;19.45;10.65;;;;;;;;;;13069440;22;20028;-78
2022/11/29 08:44:13;;;;;;;14.25;8.48;;;;;;;;;;13062709;22;20026;-80
2022/11/29 08:49:14;;;;;;;17.95;10.18;;;;;;;;;;13063787;22;20037;-78
2022/11/29 08:54:15;;;;;;;15.95;9.35;;;;;;;;;;13063957;22;20080;-79
2022/11/29 08:59:16;;;;;;;12.52;8.60;;;;;;;;;;13061682;22;20443;-80
2022/11/29 09:04:17;;;;;;;19.95;12.50;;;;;;;;;;13060934;22;20007;-78
2022/11/29 09:09:18;;;;;;;16.23;10.27;;;;;;;;;;13068110;22;20000;-79
2022/11/29 09:14:21;;;;;;;15.20;9.68;;;;;;;;;;13066442;22;20003;-79
2022/11/29 09:19:22;;;;;;;13.43;8.27;;;;;;;;;;13068862;22;20007;-81
2022/11/29 09:24:23;;;;;;;12.00;7.65;;;;;;;;;;13068414;22;19999;-80
2022/11/29 09:29:24;;;;;;;11.70;7.53;;;;;;;;;;13064885;22;20010;-80
2022/11/29 09:34:25;;;;;;;14.20;7.68;;;;;;;;;;13065351;22;20436;-79
2022/11/29 09:39:26;;;;;;;12.85;7.85;;;;;;;;;;13059591;22;20003;-80
2022/11/29 09:44:33;;;;;;;13.15;8.02;;;;;;;;;;13058769;22;20003;-83
2022/11/29 09:49:34;;;;;;;16.05;9.48;;;;;;;;;;13056573;22;20342;-81
2022/11/29 09:54:54;;;;;;;14.55;8.50;;;;;;;;;;13058139;22;20010;-81
2022/11/29 09:59:58;;;;;;;15.57;7.60;;;;;;;;;;13065107;22;19999;-81
2022/11/29 10:05:06;;;;;;;12.63;7.25;;;;;;;;;;13063655;22;20049;-86
2022/11/29 10:10:12;;;;;;;10.38;6.40;;;;;;;;;;13068828;22;20073;-81
2022/11/29 10:15:16;;;;;;;10.82;6.57;;;;;;;;;;13073472;22;20074;-82
2022/11/29 10:20:19;;;;;;;17.95;10.93;;;;;;;;;;13064411;22;20058;-81
2022/11/29 10:25:31;;;;;;;11.63;7.50;;;;;;;;;;13062904;22;20003;-82
2022/11/29 10:30:34;;;;;;;12.98;7.32;;;;;;;;;;13064902;22;20003;-83
2022/11/29 10:35:35;;;;;;;11.63;6.35;;;;;;;;;;13067333;22;20431;-81
2022/11/29 10:40:37;;;;;;;11.85;7.22;;;;;;;;;;13066238;22;20071;-82
2022/11/29 10:45:40;;;;;;;12.27;6.45;;;;;;;;;;13069018;22;20065;-82
2022/11/29 10:50:43;;;;;;;10.85;6.25;;;;;;;;;;13064416;22;20057;-80
2022/11/29 10:56:02;;;;;;;11.63;6.07;;;;;;;;;;13066787;22;20047;-84
2022/11/29 11:01:08;;;;;;;11.98;7.07;;;;;;;;;;13064436;22;20027;-81
2022/11/29 11:06:11;;;;;;;14.85;8.15;;;;;;;;;;13063976;22;19999;-81
2022/11/29 11:11:13;;;;;;;17.63;9.10;;;;;;;;;;13061533;22;20003;-80
2022/11/29 11:16:14;;;;;;;20.23;9.88;;;;;;;;;;13059015;22;20091;-80
2022/11/29 11:21:17;;;;;;;15.13;7.70;;;;;;;;;;13061750;22;20103;-81
2022/11/29 11:26:20;;;;;;;12.50;7.85;;;;;;;;;;13066047;22;20009;-82
2022/11/29 11:31:40;;;;;;;14.60;7.50;;;;;;;;;;13065388;22;20004;-81
2022/11/29 11:36:41;;;;;;;11.75;6.60;;;;;;;;;;13068948;22;20003;-81
2022/11/29 11:47:05;;;;;;;15.80;7.20;;;;;;;;;;13080661;22;20027;-80
2022/11/29 11:52:06;;;;;;;14.70;7.15;;;;;;;;;;13089110;22;20003;-80
2022/11/29 11:57:15;;;;;;;14.95;7.47;;;;;;;;;;13073673;22;20094;-81
2022/11/29 12:02:29;;;;;;;12.93;6.55;;;;;;;;;;13074480;22;20054;-81
2022/11/29 12:07:30;;;;;;;16.65;8.25;;;;;;;;;;13071540;22;20013;-81
2022/11/29 12:12:35;;;;;;;16.15;8.18;;;;;;;;;;13067725;22;20043;-81
2022/11/29 12:17:48;;;;;;;18.58;9.23;;;;;;;;;;13070569;22;20027;-80
2022/11/29 12:23:22;;;;;;;17.85;8.95;;;;;;;;;;13065192;22;20003;-82
2022/11/29 12:28:26;;;;;;;22.40;11.85;;;;;;;;;;13062933;22;19995;-84
2022/11/29 12:33:38;;;;;;;14.50;8.20;;;;;;;;;;13071852;22;20436;-86
2022/11/29 12:38:39;;;;;;;12.82;6.85;;;;;;;;;;13068960;22;20086;-82
2022/11/29 12:43:43;;;;;;;17.00;8.57;;;;;;;;;;13071852;22;20323;-80
2022/11/29 12:48:54;;;;;;;15.48;7.18;;;;;;;;;;13073140;22;20090;-80
2022/11/29 12:54:14;;;;;;;16.77;8.50;;;;;;;;;;13066608;22;20006;-81
2022/11/29 12:59:15;;;;;;;18.70;9.05;;;;;;;;;;13062283;22;20343;-81
2022/11/29 13:04:25;;;;;;;13.05;7.47;;;;;;;;;;13064826;22;20006;-82
2022/11/29 13:09:37;;;;;;;13.07;7.40;;;;;;;;;;13062756;22;20003;-80
2022/11/29 13:14:49;;;;;;;12.38;6.70;;;;;;;;;;13068019;22;20225;-80
2022/11/29 13:19:54;;;;;;;12.15;6.82;;;;;;;;;;13062969;22;20105;-80
2022/11/29 13:24:58;;;;;;;12.25;7.15;;;;;;;;;;13062462;22;20007;-80
2022/11/29 13:30:00;;;;;;;9.15;5.45;;;;;;;;;;13063321;22;20035;-80
2022/11/29 13:35:05;;;;;;;12.40;6.60;;;;;;;;;;13071695;22;20011;-82
2022/11/29 13:40:19;;;;;;;11.90;6.30;;;;;;;;;;13076110;22;20461;-80
2022/11/29 13:45:31;;;;;;;13.55;6.85;;;;;;;;;;13074201;22;20016;-81
2022/11/29 13:50:38;;;;;;;11.82;6.95;;;;;;;;;;13069425;22;20024;-80
2022/11/29 13:55:47;;;;;;;14.80;8.75;;;;;;;;;;13083073;22;20458;-82
2022/11/29 14:00:49;;;;;;;12.05;7.45;;;;;;;;;;13074768;22;19999;-83
2022/11/29 14:06:05;;;;;;;21.65;10.05;;;;;;;;;;13071177;22;19999;-80
2022/11/29 14:11:15;;;;;;;12.38;6.95;;;;;;;;;;13072489;22;20420;-82
2022/11/29 14:16:31;;;;;;;13.02;7.45;;;;;;;;;;13071240;22;20008;-83
2022/11/29 14:21:51;;;;;;;14.73;7.82;;;;;;;;;;13076945;22;20038;-82
2022/11/29 14:26:52;;;;;;;16.85;8.02;;;;;;;;;;13103674;22;20000;-77
2022/11/29 14:31:54;;;;;;;12.02;6.70;;;;;;;;;;13108919;22;20036;-79
2022/11/29 14:37:04;;;;;;;12.68;7.13;;;;;;;;;;13107502;22;20048;-77
2022/11/29 14:42:13;;;;;;;12.48;7.22;;;;;;;;;;13107777;22;19991;-79
2022/11/29 14:47:18;;;;;;;15.18;7.15;;;;;;;;;;13086727;22;20311;-80
2022/11/29 14:52:26;;;;;;;17.80;8.77;;;;;;;;;;13080155;22;20002;-80
2022/11/29 14:57:46;;;;;;;15.10;7.25;;;;;;;;;;13070211;22;20109;-81
2022/11/29 15:02:48;;;;;;;15.70;6.90;;;;;;;;;;13071544;22;19999;-82
2022/11/29 15:08:10;;;;;;;18.15;9.18;;;;;;;;;;13062016;22;20542;-82
2022/11/29 15:13:12;;;;;;;13.63;7.20;;;;;;;;;;13050024;22;20015;-82
2022/11/29 15:18:16;;;;;;;17.05;8.63;;;;;;;;;;13065657;22;20454;-83
2022/11/29 15:23:18;;;;;;;12.05;6.70;;;;;;;;;;13067821;22;19999;-82
2022/11/29 15:28:20;;;;;;;18.85;8.15;;;;;;;;;;13070176;22;20053;-83
2022/11/29 15:33:22;;;;;;;12.63;6.28;;;;;;;;;;13068211;22;20006;-82
2022/11/29 15:38:24;;;;;;;13.00;6.30;;;;;;;;;;13067848;22;20002;-82
2022/11/29 15:43:37;;;;;;;14.25;7.10;;;;;;;;;;13067189;22;20335;-83
2022/11/29 15:48:38;;;;;;;12.18;6.10;;;;;;;;;;13066142;22;20021;-83
2022/11/29 15:53:39;;;;;;;12.65;6.28;;;;;;;;;;13070003;22;20010;-83
2022/11/29 15:58:40;;;;;;;14.20;7.35;;;;;;;;;;13076709;22;20007;-83
2022/11/29 16:03:45;;;;;;;11.27;5.75;;;;;;;;;;13064802;22;20064;-80
2022/11/29 16:08:48;;;;;;;14.30;7.10;;;;;;;;;;13065777;22;20098;-82
2022/11/29 16:14:00;;;;;;;12.23;6.07;;;;;;;;;;13065806;22;20026;-81
2022/11/29 16:19:09;;;;;;;11.30;6.28;;;;;;;;;;13068592;22;20337;-80
2022/11/29 16:24:19;;;;;;;15.07;6.00;;;;;;;;;;13065991;22;20041;-80
2022/11/29 16:29:44;;;;;;;16.07;7.70;;;;;;;;;;13070404;22;20043;-80
2022/11/29 16:35:04;;;;;;;16.00;7.93;;;;;;;;;;13059611;22;20250;-79
2022/11/29 16:40:06;;;;;;;17.03;7.23;;;;;;;;;;13064297;22;20000;-78
2022/11/29 16:45:27;;;;;;;14.40;7.50;;;;;;;;;;13062904;22;20056;-81
2022/11/29 16:50:33;;;;;;;15.55;7.85;;;;;;;;;;13064655;22;20007;-81
2022/11/29 16:55:34;;;;;;;16.38;8.23;;;;;;;;;;13068714;22;20007;-80
2022/11/29 17:00:36;;;;;;;18.92;8.60;;;;;;;;;;13065449;22;20007;-81
2022/11/29 17:05:37;;;;;;;17.10;8.90;;;;;;;;;;13075047;22;20014;-79
2022/11/29 17:10:38;;;;;;;16.33;8.75;;;;;;;;;;13075985;22;20003;-81
2022/11/29 17:15:39;;;;;;;18.73;9.57;;;;;;;;;;13063787;22;20003;-82
2022/11/29 17:20:40;;;;;;;18.23;10.13;;;;;;;;;;13066808;22;19999;-81
2022/11/29 17:25:41;;;;;;;20.27;11.00;;;;;;;;;;13066867;22;20008;-81
2022/11/29 17:30:42;;;;;;;19.73;11.05;;;;;;;;;;13078528;22;20011;-84
2022/11/29 17:35:43;;;;;;;17.95;10.77;;;;;;;;;;13098101;22;20014;-83
2022/11/29 17:40:44;;;;;;;16.98;10.05;;;;;;;;;;13090292;22;19999;-83
2022/11/29 17:45:45;;;;;;;14.95;8.43;;;;;;;;;;13087070;22;20050;-82
2022/11/29 17:50:46;;;;;;;12.40;7.40;;;;;;;;;;13078972;22;19999;-82
2022/11/29 17:55:47;;;;;;;14.10;8.13;;;;;;;;;;13083017;22;20014;-84
2022/11/29 18:00:48;;;;;;;13.77;7.70;;;;;;;;;;13073316;22;20018;-82
2022/11/29 18:05:50;;;;;;;12.27;7.10;;;;;;;;;;13073269;22;20003;-83
2022/11/29 18:10:51;;;;;;;13.77;7.82;;;;;;;;;;13073873;22;20393;-83
2022/11/29 18:15:52;;;;;;;17.40;8.23;;;;;;;;;;13080450;22;20007;-83
2022/11/29 18:20:56;;;;;;;12.88;7.55;;;;;;;;;;13077218;22;20051;-83
2022/11/29 18:25:58;;;;;;;14.07;6.88;;;;;;;;;;13075205;22;20004;-83
2022/11/29 18:31:05;;;;;;;10.90;6.32;;;;;;;;;;13074235;22;20035;-82
2022/11/29 18:36:09;;;;;;;13.13;7.30;;;;;;;;;;13075851;22;20078;-83
2022/11/29 18:41:12;;;;;;;11.93;7.07;;;;;;;;;;13076667;22;19999;-83
2022/11/29 18:46:15;;;;;;;13.43;7.78;;;;;;;;;;13074565;22;20018;-83
2022/11/29 18:51:17;;;;;;;8.85;5.63;;;;;;;;;;13073689;22;20007;-83
2022/11/29 18:56:21;;;;;;;12.23;7.65;;;;;;;;;;13074441;22;20011;-84
2022/11/29 19:01:22;;;;;;;12.18;7.68;;;;;;;;;;13074321;22;20011;-83
2022/11/29 19:06:28;;;;;;;11.82;6.93;;;;;;;;;;13075820;22;20003;-82
2022/11/29 19:11:30;;;;;;;7.47;5.07;;;;;;;;;;13088866;22;20006;-82
2022/11/29 19:16:32;;;;;;;9.38;6.10;;;;;;;;;;13085044;22;20011;-83
2022/11/29 19:21:33;;;;;;;13.00;7.57;;;;;;;;;;13073791;22;20002;-83
2022/11/29 19:26:34;;;;;;;14.48;9.18;;;;;;;;;;13074865;22;20007;-83
2022/11/29 19:31:38;;;;;;;10.93;6.65;;;;;;;;;;13076198;22;20010;-83
2022/11/29 19:36:42;;;;;;;13.65;7.30;;;;;;;;;;13077643;22;20007;-83
2022/11/29 19:41:45;;;;;;;11.93;7.45;;;;;;;;;;13084296;22;20006;-83
2022/11/29 19:46:47;;;;;;;11.55;8.02;;;;;;;;;;13075935;22;20015;-84
2022/11/29 19:51:48;;;;;;;9.18;6.55;;;;;;;;;;13076689;22;20000;-83
2022/11/29 19:56:49;;;;;;;9.00;6.35;;;;;;;;;;13080138;22;20006;-83
2022/11/29 20:01:50;;;;;;;11.88;7.20;;;;;;;;;;13079062;22;19999;-84
2022/11/29 20:06:53;;;;;;;15.15;8.95;;;;;;;;;;13086330;22;20022;-83
2022/11/29 20:11:54;;;;;;;13.80;8.98;;;;;;;;;;13091868;22;20497;-82
2022/11/29 20:16:55;;;;;;;19.52;11.38;;;;;;;;;;13094740;22;20006;-83
